sensor_id;sensor_type;location;lat;lon;timestamp;P1;durP1;ratioP1;P2;durP2;ratioP2
59159;SDS011;44941;45.058;20.076;2022-08-04T00:02:02;14.80;;;1.83;;
59159;SDS011;44941;45.058;20.076;2022-08-04T00:04:31;8.48;;;1.83;;
59159;SDS011;44941;45.058;20.076;2022-08-04T00:09:43;10.25;;;1.95;;
59159;SDS011;44941;45.058;20.076;2022-08-04T00:12:10;7.32;;;1.98;;
59159;SDS011;44941;45.058;20.076;2022-08-04T00:14:37;5.53;;;1.90;;
59159;SDS011;44941;45.058;20.076;2022-08-04T00:17:06;12.68;;;2.63;;
59159;SDS011;44941;45.058;20.076;2022-08-04T00:20:06;9.20;;;2.45;;
59159;SDS011;44941;45.058;20.076;2022-08-04T00:22:26;5.70;;;1.83;;
59159;SDS011;44941;45.058;20.076;2022-08-04T00:24:54;10.32;;;1.88;;
59159;SDS011;44941;45.058;20.076;2022-08-04T00:27:20;8.30;;;1.73;;
59159;SDS011;44941;45.058;20.076;2022-08-04T00:29:46;9.90;;;2.50;;
59159;SDS011;44941;45.058;20.076;2022-08-04T00:32:13;8.55;;;2.10;;
59159;SDS011;44941;45.058;20.076;2022-08-04T00:34:39;7.80;;;1.80;;
59159;SDS011;44941;45.058;20.076;2022-08-04T00:37:06;5.30;;;2.03;;
59159;SDS011;44941;45.058;20.076;2022-08-04T00:39:32;4.82;;;1.80;;
59159;SDS011;44941;45.058;20.076;2022-08-04T00:47:21;8.60;;;1.95;;
59159;SDS011;44941;45.058;20.076;2022-08-04T01:00:25;4.90;;;1.85;;
59159;SDS011;44941;45.058;20.076;2022-08-04T01:10:43;5.60;;;1.58;;
59159;SDS011;44941;45.058;20.076;2022-08-04T01:13:28;5.15;;;1.45;;
59159;SDS011;44941;45.058;20.076;2022-08-04T01:16:05;6.55;;;1.60;;
59159;SDS011;44941;45.058;20.076;2022-08-04T01:18:54;4.15;;;1.60;;
59159;SDS011;44941;45.058;20.076;2022-08-04T01:31:40;5.00;;;1.70;;
59159;SDS011;44941;45.058;20.076;2022-08-04T01:34:09;22.38;;;3.03;;
59159;SDS011;44941;45.058;20.076;2022-08-04T01:36:36;5.07;;;1.60;;
59159;SDS011;44941;45.058;20.076;2022-08-04T01:39:07;5.38;;;1.70;;
59159;SDS011;44941;45.058;20.076;2022-08-04T01:41:53;8.65;;;1.83;;
59159;SDS011;44941;45.058;20.076;2022-08-04T01:46:46;9.20;;;1.80;;
59159;SDS011;44941;45.058;20.076;2022-08-04T01:49:15;6.13;;;1.85;;
59159;SDS011;44941;45.058;20.076;2022-08-04T01:51:41;8.13;;;2.03;;
59159;SDS011;44941;45.058;20.076;2022-08-04T01:54:09;10.55;;;2.38;;
59159;SDS011;44941;45.058;20.076;2022-08-04T01:56:36;10.18;;;2.00;;
59159;SDS011;44941;45.058;20.076;2022-08-04T01:59:02;6.75;;;1.70;;
59159;SDS011;44941;45.058;20.076;2022-08-04T02:01:31;6.18;;;2.28;;
59159;SDS011;44941;45.058;20.076;2022-08-04T02:04:00;6.60;;;1.95;;
59159;SDS011;44941;45.058;20.076;2022-08-04T02:09:37;7.55;;;1.90;;
59159;SDS011;44941;45.058;20.076;2022-08-04T02:14:42;12.85;;;1.90;;
59159;SDS011;44941;45.058;20.076;2022-08-04T02:17:28;5.93;;;2.15;;
59159;SDS011;44941;45.058;20.076;2022-08-04T02:22:21;6.70;;;1.83;;
59159;SDS011;44941;45.058;20.076;2022-08-04T02:24:48;7.35;;;2.15;;
59159;SDS011;44941;45.058;20.076;2022-08-04T02:30:00;7.85;;;2.03;;
59159;SDS011;44941;45.058;20.076;2022-08-04T02:32:28;4.78;;;1.60;;
59159;SDS011;44941;45.058;20.076;2022-08-04T02:35:02;7.35;;;2.05;;
59159;SDS011;44941;45.058;20.076;2022-08-04T02:37:31;6.88;;;1.75;;
59159;SDS011;44941;45.058;20.076;2022-08-04T02:39:58;6.32;;;2.20;;
59159;SDS011;44941;45.058;20.076;2022-08-04T02:42:25;6.75;;;1.98;;
59159;SDS011;44941;45.058;20.076;2022-08-04T02:44:52;15.80;;;1.60;;
59159;SDS011;44941;45.058;20.076;2022-08-04T02:47:21;6.25;;;2.05;;
59159;SDS011;44941;45.058;20.076;2022-08-04T02:49:49;4.85;;;2.10;;
59159;SDS011;44941;45.058;20.076;2022-08-04T02:52:15;5.72;;;1.88;;
59159;SDS011;44941;45.058;20.076;2022-08-04T02:57:10;6.38;;;1.88;;
59159;SDS011;44941;45.058;20.076;2022-08-04T03:02:23;8.75;;;2.28;;
59159;SDS011;44941;45.058;20.076;2022-08-04T03:05:02;5.22;;;1.85;;
59159;SDS011;44941;45.058;20.076;2022-08-04T03:07:38;4.38;;;1.90;;
59159;SDS011;44941;45.058;20.076;2022-08-04T03:10:25;4.30;;;1.67;;
59159;SDS011;44941;45.058;20.076;2022-08-04T03:39:07;9.15;;;2.25;;
59159;SDS011;44941;45.058;20.076;2022-08-04T03:50:07;7.07;;;2.20;;
59159;SDS011;44941;45.058;20.076;2022-08-04T04:01:01;9.60;;;2.42;;
59159;SDS011;44941;45.058;20.076;2022-08-04T04:27:27;9.70;;;3.05;;
59159;SDS011;44941;45.058;20.076;2022-08-04T04:29:47;10.70;;;2.58;;
59159;SDS011;44941;45.058;20.076;2022-08-04T04:55:40;10.73;;;2.80;;
59159;SDS011;44941;45.058;20.076;2022-08-04T04:58:07;11.38;;;2.60;;
59159;SDS011;44941;45.058;20.076;2022-08-04T05:01:03;10.40;;;2.20;;
59159;SDS011;44941;45.058;20.076;2022-08-04T05:06:09;11.40;;;2.22;;
59159;SDS011;44941;45.058;20.076;2022-08-04T05:08:42;8.68;;;2.38;;
59159;SDS011;44941;45.058;20.076;2022-08-04T05:11:29;6.05;;;1.90;;
59159;SDS011;44941;45.058;20.076;2022-08-04T05:14:00;6.30;;;2.50;;
59159;SDS011;44941;45.058;20.076;2022-08-04T05:16:34;8.82;;;2.65;;
59159;SDS011;44941;45.058;20.076;2022-08-04T05:24:13;8.77;;;3.20;;
59159;SDS011;44941;45.058;20.076;2022-08-04T05:26:40;9.95;;;2.72;;
59159;SDS011;44941;45.058;20.076;2022-08-04T05:29:10;9.23;;;2.50;;
59159;SDS011;44941;45.058;20.076;2022-08-04T05:31:46;11.95;;;2.45;;
59159;SDS011;44941;45.058;20.076;2022-08-04T05:34:14;9.02;;;2.55;;
59159;SDS011;44941;45.058;20.076;2022-08-04T05:36:47;18.48;;;2.70;;
59159;SDS011;44941;45.058;20.076;2022-08-04T05:39:14;16.98;;;2.33;;
59159;SDS011;44941;45.058;20.076;2022-08-04T05:41:42;9.57;;;3.22;;
59159;SDS011;44941;45.058;20.076;2022-08-04T05:44:08;7.00;;;2.35;;
59159;SDS011;44941;45.058;20.076;2022-08-04T05:46:35;9.10;;;2.40;;
59159;SDS011;44941;45.058;20.076;2022-08-04T05:49:02;7.65;;;2.35;;
59159;SDS011;44941;45.058;20.076;2022-08-04T05:51:29;8.73;;;2.17;;
59159;SDS011;44941;45.058;20.076;2022-08-04T05:56:22;9.43;;;2.83;;
59159;SDS011;44941;45.058;20.076;2022-08-04T05:58:48;8.25;;;2.70;;
59159;SDS011;44941;45.058;20.076;2022-08-04T06:01:15;10.38;;;2.97;;
59159;SDS011;44941;45.058;20.076;2022-08-04T06:03:42;15.23;;;6.22;;
59159;SDS011;44941;45.058;20.076;2022-08-04T06:06:08;8.90;;;3.08;;
59159;SDS011;44941;45.058;20.076;2022-08-04T06:08:36;4.25;;;1.80;;
59159;SDS011;44941;45.058;20.076;2022-08-04T06:11:03;7.63;;;2.03;;
59159;SDS011;44941;45.058;20.076;2022-08-04T06:13:32;5.20;;;1.63;;
59159;SDS011;44941;45.058;20.076;2022-08-04T06:16:01;4.65;;;1.50;;
59159;SDS011;44941;45.058;20.076;2022-08-04T06:18:28;6.70;;;2.80;;
59159;SDS011;44941;45.058;20.076;2022-08-04T06:20:54;4.43;;;1.75;;
59159;SDS011;44941;45.058;20.076;2022-08-04T06:23:23;5.18;;;1.70;;
59159;SDS011;44941;45.058;20.076;2022-08-04T06:25:53;5.45;;;2.17;;
59159;SDS011;44941;45.058;20.076;2022-08-04T06:28:20;8.50;;;2.28;;
59159;SDS011;44941;45.058;20.076;2022-08-04T06:30:47;4.57;;;1.90;;
59159;SDS011;44941;45.058;20.076;2022-08-04T06:33:15;12.60;;;1.80;;
59159;SDS011;44941;45.058;20.076;2022-08-04T06:35:52;8.05;;;2.05;;
59159;SDS011;44941;45.058;20.076;2022-08-04T06:38:22;7.15;;;1.67;;
59159;SDS011;44941;45.058;20.076;2022-08-04T06:40:49;5.70;;;1.67;;
59159;SDS011;44941;45.058;20.076;2022-08-04T06:43:16;11.25;;;2.45;;
59159;SDS011;44941;45.058;20.076;2022-08-04T06:45:42;9.02;;;1.83;;
59159;SDS011;44941;45.058;20.076;2022-08-04T06:48:11;7.90;;;1.67;;
59159;SDS011;44941;45.058;20.076;2022-08-04T06:50:37;8.30;;;1.80;;
59159;SDS011;44941;45.058;20.076;2022-08-04T06:53:04;3.35;;;1.50;;
59159;SDS011;44941;45.058;20.076;2022-08-04T06:55:30;5.63;;;1.70;;
59159;SDS011;44941;45.058;20.076;2022-08-04T06:57:57;5.07;;;1.70;;
59159;SDS011;44941;45.058;20.076;2022-08-04T07:00:24;3.40;;;1.60;;
59159;SDS011;44941;45.058;20.076;2022-08-04T07:02:51;5.50;;;1.90;;
59159;SDS011;44941;45.058;20.076;2022-08-04T07:05:18;6.75;;;2.00;;
59159;SDS011;44941;45.058;20.076;2022-08-04T07:07:44;3.00;;;1.40;;
59159;SDS011;44941;45.058;20.076;2022-08-04T07:10:11;3.22;;;1.67;;
59159;SDS011;44941;45.058;20.076;2022-08-04T07:12:38;4.80;;;1.40;;
59159;SDS011;44941;45.058;20.076;2022-08-04T07:15:05;4.05;;;2.10;;
59159;SDS011;44941;45.058;20.076;2022-08-04T07:17:32;7.90;;;3.03;;
59159;SDS011;44941;45.058;20.076;2022-08-04T07:19:58;6.60;;;3.80;;
59159;SDS011;44941;45.058;20.076;2022-08-04T07:22:25;5.60;;;2.95;;
59159;SDS011;44941;45.058;20.076;2022-08-04T07:24:55;7.63;;;2.92;;
59159;SDS011;44941;45.058;20.076;2022-08-04T07:27:22;8.27;;;3.00;;
59159;SDS011;44941;45.058;20.076;2022-08-04T07:29:48;5.88;;;2.85;;
59159;SDS011;44941;45.058;20.076;2022-08-04T07:32:15;5.97;;;2.20;;
59159;SDS011;44941;45.058;20.076;2022-08-04T07:34:41;7.22;;;1.92;;
59159;SDS011;44941;45.058;20.076;2022-08-04T07:37:08;10.13;;;2.70;;
59159;SDS011;44941;45.058;20.076;2022-08-04T07:39:34;9.93;;;3.40;;
59159;SDS011;44941;45.058;20.076;2022-08-04T07:42:01;7.97;;;2.30;;
59159;SDS011;44941;45.058;20.076;2022-08-04T07:44:31;9.18;;;2.55;;
59159;SDS011;44941;45.058;20.076;2022-08-04T07:46:58;4.18;;;1.85;;
59159;SDS011;44941;45.058;20.076;2022-08-04T07:49:24;5.70;;;2.13;;
59159;SDS011;44941;45.058;20.076;2022-08-04T07:51:50;6.45;;;2.13;;
59159;SDS011;44941;45.058;20.076;2022-08-04T07:54:17;4.43;;;1.35;;
59159;SDS011;44941;45.058;20.076;2022-08-04T07:56:43;8.85;;;2.28;;
59159;SDS011;44941;45.058;20.076;2022-08-04T07:59:09;3.33;;;1.20;;
59159;SDS011;44941;45.058;20.076;2022-08-04T08:01:36;4.15;;;1.60;;
59159;SDS011;44941;45.058;20.076;2022-08-04T08:04:04;11.53;;;2.03;;
59159;SDS011;44941;45.058;20.076;2022-08-04T08:06:33;3.17;;;1.40;;
59159;SDS011;44941;45.058;20.076;2022-08-04T08:09:00;7.65;;;1.60;;
59159;SDS011;44941;45.058;20.076;2022-08-04T08:11:26;2.30;;;1.00;;
59159;SDS011;44941;45.058;20.076;2022-08-04T08:13:52;3.92;;;1.52;;
59159;SDS011;44941;45.058;20.076;2022-08-04T08:16:19;5.18;;;1.42;;
59159;SDS011;44941;45.058;20.076;2022-08-04T08:18:47;4.65;;;1.52;;
59159;SDS011;44941;45.058;20.076;2022-08-04T08:21:13;5.25;;;1.67;;
59159;SDS011;44941;45.058;20.076;2022-08-04T08:23:39;7.82;;;1.70;;
59159;SDS011;44941;45.058;20.076;2022-08-04T08:26:06;6.43;;;1.80;;
59159;SDS011;44941;45.058;20.076;2022-08-04T08:28:32;4.20;;;1.77;;
59159;SDS011;44941;45.058;20.076;2022-08-04T08:30:58;4.65;;;1.80;;
59159;SDS011;44941;45.058;20.076;2022-08-04T08:33:24;12.50;;;1.88;;
59159;SDS011;44941;45.058;20.076;2022-08-04T08:35:57;6.75;;;1.60;;
59159;SDS011;44941;45.058;20.076;2022-08-04T08:38:27;2.47;;;1.35;;
59159;SDS011;44941;45.058;20.076;2022-08-04T08:51:26;1.60;;;1.02;;
59159;SDS011;44941;45.058;20.076;2022-08-04T09:01:43;7.05;;;3.92;;
59159;SDS011;44941;45.058;20.076;2022-08-04T09:07:09;3.65;;;1.95;;
59159;SDS011;44941;45.058;20.076;2022-08-04T09:17:22;2.30;;;0.93;;
59159;SDS011;44941;45.058;20.076;2022-08-04T09:19:58;2.92;;;1.30;;
59159;SDS011;44941;45.058;20.076;2022-08-04T09:22:35;1.80;;;1.10;;
59159;SDS011;44941;45.058;20.076;2022-08-04T09:30:08;3.38;;;1.73;;
59159;SDS011;44941;45.058;20.076;2022-08-04T09:32:40;4.55;;;2.25;;
59159;SDS011;44941;45.058;20.076;2022-08-04T09:40:37;4.47;;;1.42;;
59159;SDS011;44941;45.058;20.076;2022-08-04T09:45:35;5.20;;;2.45;;
59159;SDS011;44941;45.058;20.076;2022-08-04T09:48:07;3.47;;;1.73;;
59159;SDS011;44941;45.058;20.076;2022-08-04T09:50:38;3.60;;;1.52;;
59159;SDS011;44941;45.058;20.076;2022-08-04T09:58:08;2.80;;;1.52;;
59159;SDS011;44941;45.058;20.076;2022-08-04T10:00:46;3.15;;;1.30;;
59159;SDS011;44941;45.058;20.076;2022-08-04T10:03:13;6.27;;;1.90;;
59159;SDS011;44941;45.058;20.076;2022-08-04T10:10:55;2.95;;;1.50;;
59159;SDS011;44941;45.058;20.076;2022-08-04T10:18:56;14.18;;;4.28;;
59159;SDS011;44941;45.058;20.076;2022-08-04T10:24:22;4.47;;;1.50;;
59159;SDS011;44941;45.058;20.076;2022-08-04T10:26:54;2.10;;;1.20;;
59159;SDS011;44941;45.058;20.076;2022-08-04T10:29:36;3.47;;;1.52;;
59159;SDS011;44941;45.058;20.076;2022-08-04T10:32:05;12.93;;;2.53;;
59159;SDS011;44941;45.058;20.076;2022-08-04T10:34:41;9.63;;;2.97;;
59159;SDS011;44941;45.058;20.076;2022-08-04T10:40:21;3.05;;;1.40;;
59159;SDS011;44941;45.058;20.076;2022-08-04T10:42:46;3.88;;;1.35;;
59159;SDS011;44941;45.058;20.076;2022-08-04T10:45:17;3.63;;;1.48;;
59159;SDS011;44941;45.058;20.076;2022-08-04T10:47:49;3.80;;;1.27;;
59159;SDS011;44941;45.058;20.076;2022-08-04T10:50:16;3.22;;;1.25;;
59159;SDS011;44941;45.058;20.076;2022-08-04T10:52:45;4.47;;;1.33;;
59159;SDS011;44941;45.058;20.076;2022-08-04T10:55:23;3.75;;;1.20;;
59159;SDS011;44941;45.058;20.076;2022-08-04T11:00:26;2.28;;;1.10;;
59159;SDS011;44941;45.058;20.076;2022-08-04T11:03:06;5.93;;;1.27;;
59159;SDS011;44941;45.058;20.076;2022-08-04T11:08:04;2.70;;;1.20;;
59159;SDS011;44941;45.058;20.076;2022-08-04T11:10:39;4.32;;;1.67;;
59159;SDS011;44941;45.058;20.076;2022-08-04T11:13:06;4.18;;;1.83;;
59159;SDS011;44941;45.058;20.076;2022-08-04T11:15:37;4.72;;;1.98;;
59159;SDS011;44941;45.058;20.076;2022-08-04T11:18:14;2.53;;;1.40;;
59159;SDS011;44941;45.058;20.076;2022-08-04T11:20:46;4.28;;;1.25;;
59159;SDS011;44941;45.058;20.076;2022-08-04T11:23:15;5.38;;;1.42;;
59159;SDS011;44941;45.058;20.076;2022-08-04T11:29:00;2.55;;;1.30;;
59159;SDS011;44941;45.058;20.076;2022-08-04T11:31:20;2.67;;;1.35;;
59159;SDS011;44941;45.058;20.076;2022-08-04T11:38:45;7.78;;;2.03;;
59159;SDS011;44941;45.058;20.076;2022-08-04T11:41:15;3.15;;;1.40;;
59159;SDS011;44941;45.058;20.076;2022-08-04T11:43:55;3.75;;;1.33;;
59159;SDS011;44941;45.058;20.076;2022-08-04T11:46:25;3.88;;;1.52;;
59159;SDS011;44941;45.058;20.076;2022-08-04T11:48:55;3.28;;;1.30;;
59159;SDS011;44941;45.058;20.076;2022-08-04T11:51:24;7.22;;;1.98;;
59159;SDS011;44941;45.058;20.076;2022-08-04T11:53:51;2.25;;;1.17;;
59159;SDS011;44941;45.058;20.076;2022-08-04T11:56:17;7.47;;;2.05;;
59159;SDS011;44941;45.058;20.076;2022-08-04T11:58:43;3.40;;;1.42;;
59159;SDS011;44941;45.058;20.076;2022-08-04T12:09:16;2.40;;;1.42;;
59159;SDS011;44941;45.058;20.076;2022-08-04T12:16:47;5.88;;;1.60;;
59159;SDS011;44941;45.058;20.076;2022-08-04T12:19:16;2.38;;;1.48;;
59159;SDS011;44941;45.058;20.076;2022-08-04T12:21:53;2.65;;;1.48;;
59159;SDS011;44941;45.058;20.076;2022-08-04T12:24:21;2.40;;;1.45;;
59159;SDS011;44941;45.058;20.076;2022-08-04T12:26:51;4.68;;;1.45;;
59159;SDS011;44941;45.058;20.076;2022-08-04T12:29:19;4.30;;;1.77;;
59159;SDS011;44941;45.058;20.076;2022-08-04T12:31:48;5.00;;;1.35;;
59159;SDS011;44941;45.058;20.076;2022-08-04T12:36:57;4.03;;;1.25;;
59159;SDS011;44941;45.058;20.076;2022-08-04T12:39:26;6.97;;;1.25;;
59159;SDS011;44941;45.058;20.076;2022-08-04T12:44:22;2.75;;;1.23;;
59159;SDS011;44941;45.058;20.076;2022-08-04T12:46:48;3.28;;;1.33;;
59159;SDS011;44941;45.058;20.076;2022-08-04T12:49:14;2.63;;;1.05;;
59159;SDS011;44941;45.058;20.076;2022-08-04T12:51:42;1.80;;;1.10;;
59159;SDS011;44941;45.058;20.076;2022-08-04T12:54:09;2.28;;;1.13;;
59159;SDS011;44941;45.058;20.076;2022-08-04T12:56:36;5.13;;;1.30;;
59159;SDS011;44941;45.058;20.076;2022-08-04T12:59:07;2.83;;;1.00;;
59159;SDS011;44941;45.058;20.076;2022-08-04T13:01:33;13.45;;;2.38;;
59159;SDS011;44941;45.058;20.076;2022-08-04T13:04:09;2.13;;;1.05;;
59159;SDS011;44941;45.058;20.076;2022-08-04T13:06:36;2.63;;;1.10;;
59159;SDS011;44941;45.058;20.076;2022-08-04T13:09:07;3.83;;;1.40;;
59159;SDS011;44941;45.058;20.076;2022-08-04T13:11:38;3.05;;;1.30;;
59159;SDS011;44941;45.058;20.076;2022-08-04T13:14:05;4.88;;;1.20;;
59159;SDS011;44941;45.058;20.076;2022-08-04T13:16:32;2.15;;;1.17;;
59159;SDS011;44941;45.058;20.076;2022-08-04T13:18:58;3.38;;;1.38;;
59159;SDS011;44941;45.058;20.076;2022-08-04T13:21:25;3.03;;;1.38;;
59159;SDS011;44941;45.058;20.076;2022-08-04T13:23:57;3.15;;;1.45;;
59159;SDS011;44941;45.058;20.076;2022-08-04T13:26:26;3.75;;;1.50;;
59159;SDS011;44941;45.058;20.076;2022-08-04T13:28:53;5.95;;;1.45;;
59159;SDS011;44941;45.058;20.076;2022-08-04T13:31:20;6.03;;;1.50;;
59159;SDS011;44941;45.058;20.076;2022-08-04T13:33:48;4.80;;;1.67;;
59159;SDS011;44941;45.058;20.076;2022-08-04T13:36:15;4.03;;;1.40;;
59159;SDS011;44941;45.058;20.076;2022-08-04T13:38:48;4.50;;;1.55;;
59159;SDS011;44941;45.058;20.076;2022-08-04T13:41:15;7.88;;;1.58;;
59159;SDS011;44941;45.058;20.076;2022-08-04T13:43:49;3.50;;;1.52;;
59159;SDS011;44941;45.058;20.076;2022-08-04T13:46:19;5.68;;;1.30;;
59159;SDS011;44941;45.058;20.076;2022-08-04T13:48:46;2.05;;;1.10;;
59159;SDS011;44941;45.058;20.076;2022-08-04T13:51:14;2.70;;;1.30;;
59159;SDS011;44941;45.058;20.076;2022-08-04T13:53:42;4.90;;;1.48;;
59159;SDS011;44941;45.058;20.076;2022-08-04T13:56:08;3.90;;;1.63;;
59159;SDS011;44941;45.058;20.076;2022-08-04T14:01:02;6.88;;;1.80;;
59159;SDS011;44941;45.058;20.076;2022-08-04T14:03:35;4.53;;;1.52;;
59159;SDS011;44941;45.058;20.076;2022-08-04T14:08:35;6.07;;;1.48;;
59159;SDS011;44941;45.058;20.076;2022-08-04T14:11:08;2.67;;;1.40;;
59159;SDS011;44941;45.058;20.076;2022-08-04T14:13:35;3.50;;;1.50;;
59159;SDS011;44941;45.058;20.076;2022-08-04T14:16:01;3.17;;;1.52;;
59159;SDS011;44941;45.058;20.076;2022-08-04T14:18:38;2.42;;;1.40;;
59159;SDS011;44941;45.058;20.076;2022-08-04T14:23:41;4.43;;;1.47;;
59159;SDS011;44941;45.058;20.076;2022-08-04T14:28:46;4.75;;;1.38;;
59159;SDS011;44941;45.058;20.076;2022-08-04T14:31:13;4.20;;;1.57;;
59159;SDS011;44941;45.058;20.076;2022-08-04T14:33:40;7.32;;;1.70;;
59159;SDS011;44941;45.058;20.076;2022-08-04T14:36:06;3.38;;;1.55;;
59159;SDS011;44941;45.058;20.076;2022-08-04T14:40:59;3.35;;;1.30;;
59159;SDS011;44941;45.058;20.076;2022-08-04T14:43:25;2.67;;;1.10;;
59159;SDS011;44941;45.058;20.076;2022-08-04T14:46:03;2.45;;;1.45;;
59159;SDS011;44941;45.058;20.076;2022-08-04T14:48:29;5.07;;;1.30;;
59159;SDS011;44941;45.058;20.076;2022-08-04T14:50:55;5.10;;;1.42;;
59159;SDS011;44941;45.058;20.076;2022-08-04T14:53:23;3.67;;;1.70;;
59159;SDS011;44941;45.058;20.076;2022-08-04T14:55:58;3.05;;;1.42;;
59159;SDS011;44941;45.058;20.076;2022-08-04T14:58:27;3.22;;;1.45;;
59159;SDS011;44941;45.058;20.076;2022-08-04T15:00:54;5.43;;;1.30;;
59159;SDS011;44941;45.058;20.076;2022-08-04T15:03:20;4.90;;;1.83;;
59159;SDS011;44941;45.058;20.076;2022-08-04T15:05:47;6.18;;;1.65;;
59159;SDS011;44941;45.058;20.076;2022-08-04T15:10:40;3.53;;;1.50;;
59159;SDS011;44941;45.058;20.076;2022-08-04T15:13:06;5.20;;;1.30;;
59159;SDS011;44941;45.058;20.076;2022-08-04T15:15:33;3.88;;;1.67;;
59159;SDS011;44941;45.058;20.076;2022-08-04T15:17:59;4.88;;;1.77;;
59159;SDS011;44941;45.058;20.076;2022-08-04T15:20:27;3.40;;;1.08;;
59159;SDS011;44941;45.058;20.076;2022-08-04T15:22:53;3.78;;;1.40;;
59159;SDS011;44941;45.058;20.076;2022-08-04T15:25:20;4.18;;;1.40;;
59159;SDS011;44941;45.058;20.076;2022-08-04T15:27:47;2.75;;;1.42;;
59159;SDS011;44941;45.058;20.076;2022-08-04T15:30:15;2.40;;;1.40;;
59159;SDS011;44941;45.058;20.076;2022-08-04T15:32:45;6.97;;;1.70;;
59159;SDS011;44941;45.058;20.076;2022-08-04T15:35:16;3.08;;;1.65;;
59159;SDS011;44941;45.058;20.076;2022-08-04T15:37:53;3.35;;;1.30;;
59159;SDS011;44941;45.058;20.076;2022-08-04T15:45:47;3.60;;;1.47;;
59159;SDS011;44941;45.058;20.076;2022-08-04T15:53:23;3.97;;;1.42;;
59159;SDS011;44941;45.058;20.076;2022-08-04T15:58:17;5.67;;;1.87;;
59159;SDS011;44941;45.058;20.076;2022-08-04T16:06:00;3.53;;;1.30;;
59159;SDS011;44941;45.058;20.076;2022-08-04T16:08:26;6.10;;;1.75;;
59159;SDS011;44941;45.058;20.076;2022-08-04T16:10:52;3.85;;;1.73;;
59159;SDS011;44941;45.058;20.076;2022-08-04T16:13:20;3.67;;;1.70;;
59159;SDS011;44941;45.058;20.076;2022-08-04T16:15:53;3.58;;;1.63;;
59159;SDS011;44941;45.058;20.076;2022-08-04T16:20:54;4.75;;;1.50;;
59159;SDS011;44941;45.058;20.076;2022-08-04T16:25:53;4.25;;;1.55;;
59159;SDS011;44941;45.058;20.076;2022-08-04T16:31:05;3.72;;;1.48;;
59159;SDS011;44941;45.058;20.076;2022-08-04T16:33:31;9.95;;;1.52;;
59159;SDS011;44941;45.058;20.076;2022-08-04T16:35:58;10.57;;;1.40;;
59159;SDS011;44941;45.058;20.076;2022-08-04T16:38:25;2.78;;;1.30;;
59159;SDS011;44941;45.058;20.076;2022-08-04T16:40:55;2.50;;;1.40;;
59159;SDS011;44941;45.058;20.076;2022-08-04T16:43:21;3.30;;;1.45;;
59159;SDS011;44941;45.058;20.076;2022-08-04T16:51:08;8.48;;;2.65;;
59159;SDS011;44941;45.058;20.076;2022-08-04T16:53:41;6.40;;;2.30;;
59159;SDS011;44941;45.058;20.076;2022-08-04T16:56:08;4.75;;;2.13;;
59159;SDS011;44941;45.058;20.076;2022-08-04T16:58:35;7.70;;;2.08;;
59159;SDS011;44941;45.058;20.076;2022-08-04T17:03:34;6.60;;;2.95;;
59159;SDS011;44941;45.058;20.076;2022-08-04T17:06:04;6.65;;;2.45;;
59159;SDS011;44941;45.058;20.076;2022-08-04T17:08:31;7.25;;;2.25;;
59159;SDS011;44941;45.058;20.076;2022-08-04T17:47:16;132.95;;;26.65;;
59159;SDS011;44941;45.058;20.076;2022-08-04T17:49:42;235.70;;;31.27;;
59159;SDS011;44941;45.058;20.076;2022-08-04T17:52:09;68.20;;;10.50;;
59159;SDS011;44941;45.058;20.076;2022-08-04T17:54:44;19.02;;;3.85;;
59159;SDS011;44941;45.058;20.076;2022-08-04T17:57:17;101.97;;;19.02;;
59159;SDS011;44941;45.058;20.076;2022-08-04T17:59:44;62.45;;;9.85;;
59159;SDS011;44941;45.058;20.076;2022-08-04T18:02:12;21.42;;;4.20;;
59159;SDS011;44941;45.058;20.076;2022-08-04T18:04:45;59.47;;;7.00;;
59159;SDS011;44941;45.058;20.076;2022-08-04T18:09:41;27.23;;;5.35;;
59159;SDS011;44941;45.058;20.076;2022-08-04T18:12:50;28.30;;;4.82;;
59159;SDS011;44941;45.058;20.076;2022-08-04T18:14:59;14.88;;;4.18;;
59159;SDS011;44941;45.058;20.076;2022-08-04T18:20:01;15.35;;;4.50;;
59159;SDS011;44941;45.058;20.076;2022-08-04T18:22:27;29.90;;;4.00;;
59159;SDS011;44941;45.058;20.076;2022-08-04T18:24:53;24.20;;;4.20;;
59159;SDS011;44941;45.058;20.076;2022-08-04T18:27:21;12.03;;;3.57;;
59159;SDS011;44941;45.058;20.076;2022-08-04T18:29:47;11.57;;;3.45;;
59159;SDS011;44941;45.058;20.076;2022-08-04T18:32:14;10.88;;;3.25;;
59159;SDS011;44941;45.058;20.076;2022-08-04T18:34:40;10.40;;;3.05;;
59159;SDS011;44941;45.058;20.076;2022-08-04T18:37:06;18.52;;;3.15;;
59159;SDS011;44941;45.058;20.076;2022-08-04T18:39:32;22.30;;;3.67;;
59159;SDS011;44941;45.058;20.076;2022-08-04T18:41:59;12.18;;;3.90;;
59159;SDS011;44941;45.058;20.076;2022-08-04T18:44:25;10.40;;;3.58;;
59159;SDS011;44941;45.058;20.076;2022-08-04T18:46:53;14.27;;;3.28;;
59159;SDS011;44941;45.058;20.076;2022-08-04T18:49:19;17.90;;;2.90;;
59159;SDS011;44941;45.058;20.076;2022-08-04T18:51:53;9.05;;;3.08;;
59159;SDS011;44941;45.058;20.076;2022-08-04T18:54:20;14.63;;;4.60;;
59159;SDS011;44941;45.058;20.076;2022-08-04T18:56:48;12.15;;;3.13;;
59159;SDS011;44941;45.058;20.076;2022-08-04T18:59:14;11.02;;;3.65;;
59159;SDS011;44941;45.058;20.076;2022-08-04T19:01:40;15.43;;;2.97;;
59159;SDS011;44941;45.058;20.076;2022-08-04T19:04:07;5.65;;;2.60;;
59159;SDS011;44941;45.058;20.076;2022-08-04T19:06:34;10.88;;;3.58;;
59159;SDS011;44941;45.058;20.076;2022-08-04T19:09:01;8.27;;;2.83;;
59159;SDS011;44941;45.058;20.076;2022-08-04T19:11:27;9.60;;;2.83;;
59159;SDS011;44941;45.058;20.076;2022-08-04T19:13:53;9.15;;;3.15;;
59159;SDS011;44941;45.058;20.076;2022-08-04T19:16:19;10.07;;;3.30;;
59159;SDS011;44941;45.058;20.076;2022-08-04T19:18:45;14.50;;;3.60;;
59159;SDS011;44941;45.058;20.076;2022-08-04T19:21:11;9.50;;;3.30;;
59159;SDS011;44941;45.058;20.076;2022-08-04T19:23:38;16.83;;;3.80;;
59159;SDS011;44941;45.058;20.076;2022-08-04T19:26:04;11.50;;;3.30;;
59159;SDS011;44941;45.058;20.076;2022-08-04T19:28:31;12.00;;;4.03;;
59159;SDS011;44941;45.058;20.076;2022-08-04T19:30:57;11.63;;;3.30;;
59159;SDS011;44941;45.058;20.076;2022-08-04T19:33:23;14.98;;;4.18;;
59159;SDS011;44941;45.058;20.076;2022-08-04T19:35:49;16.88;;;3.53;;
59159;SDS011;44941;45.058;20.076;2022-08-04T19:38:15;8.15;;;2.40;;
59159;SDS011;44941;45.058;20.076;2022-08-04T19:43:10;7.22;;;2.38;;
59159;SDS011;44941;45.058;20.076;2022-08-04T19:45:36;6.97;;;2.40;;
59159;SDS011;44941;45.058;20.076;2022-08-04T19:48:02;6.13;;;2.55;;
59159;SDS011;44941;45.058;20.076;2022-08-04T19:50:30;5.07;;;2.70;;
59159;SDS011;44941;45.058;20.076;2022-08-04T19:52:56;11.80;;;3.28;;
59159;SDS011;44941;45.058;20.076;2022-08-04T19:55:23;5.80;;;2.20;;
59159;SDS011;44941;45.058;20.076;2022-08-04T19:57:49;7.40;;;2.40;;
59159;SDS011;44941;45.058;20.076;2022-08-04T20:00:16;5.40;;;2.60;;
59159;SDS011;44941;45.058;20.076;2022-08-04T20:02:43;3.60;;;2.20;;
59159;SDS011;44941;45.058;20.076;2022-08-04T20:05:09;4.47;;;2.23;;
59159;SDS011;44941;45.058;20.076;2022-08-04T20:07:36;8.00;;;2.50;;
59159;SDS011;44941;45.058;20.076;2022-08-04T20:10:03;4.85;;;2.35;;
59159;SDS011;44941;45.058;20.076;2022-08-04T20:12:29;5.45;;;2.22;;
59159;SDS011;44941;45.058;20.076;2022-08-04T20:14:55;4.93;;;2.63;;
59159;SDS011;44941;45.058;20.076;2022-08-04T20:17:22;5.25;;;2.30;;
59159;SDS011;44941;45.058;20.076;2022-08-04T20:19:48;5.63;;;2.40;;
59159;SDS011;44941;45.058;20.076;2022-08-04T20:22:15;8.20;;;2.43;;
59159;SDS011;44941;45.058;20.076;2022-08-04T20:24:43;19.10;;;3.95;;